This is the latest recevied weather packets stored in our database for station/object WE0DX-1. If no packets are shown the sender has not sent any weather packets the latest 10 day(s).
| Time | Temp. | Humidity | Pressure | Rain* | Wind** | Luminosity | Snow |
|---|---|---|---|---|---|---|---|
| 1777604468 | 11.11° C | 59% | 1018.4 hPa | 0 mm | - | 0 W/m² | - |
| 1777604167 | 11.67° C | 59% | 1018.2 hPa | 0 mm | - | 0 W/m² | - |
| 1777603864 | 11.67° C | 58% | 1018 hPa | 0 mm | - | 0 W/m² | - |
| 1777603560 | 11.67° C | 58% | 1018 hPa | 0 mm | - | 0 W/m² | - |
| 1777603256 | 11.67° C | 58% | 1018 hPa | 0 mm | - | 0 W/m² | - |
| 1777602952 | 11.67° C | 58% | 1017.6 hPa | 0 mm | - | 0 W/m² | - |
| 1777602648 | 11.67° C | 57% | 1017.9 hPa | 0 mm | - | 0 W/m² | - |
| 1777602348 | 12.22° C | 57% | 1017.4 hPa | 0 mm | - | 0 W/m² | - |
| 1777602044 | 12.22° C | 57% | 1017.6 hPa | 0 mm | - | 0 W/m² | - |
| 1777585349 | 18.33° C | 47% | 1014.8 hPa | 0 mm | - | 92 W/m² | - |
| 1777584134 | 18.33° C | 47% | 1014.7 hPa | 0 mm | - | 177 W/m² | - |
| 1777583223 | 17.78° C | 50% | 1015 hPa | 0 mm | - | 161 W/m² | - |
| 1777582918 | 17.78° C | 50% | 1015 hPa | 0 mm | - | 87 W/m² | - |
| 1777582616 | 17.78° C | 52% | 1015.2 hPa | 0 mm | - | 120 W/m² | - |
| 1777580791 | 18.33° C | 51% | 1015.6 hPa | 0 mm | - | 547 W/m² | - |
| 1777580189 | 17.78° C | 53% | 1015.5 hPa | 0 mm | - | 387 W/m² | - |
| 1777579886 | 18.33° C | 52% | 1015.5 hPa | 0 mm | - | 235 W/m² | - |
| 1777577762 | 17.22° C | 52% | 1015.9 hPa | 0 mm | - | 209 W/m² | - |
| 1777577156 | 17.78° C | 52% | 1016 hPa | 0 mm | - | 271 W/m² | - |
| 1777576852 | 17.78° C | 54% | 1015.8 hPa | 0 mm | - | 264 W/m² | - |
| 1777576551 | 17.22° C | 53% | 1015.7 hPa | 0 mm | - | 416 W/m² | - |
| 1777576247 | 16.67° C | 55% | 1015.8 hPa | 0 mm | - | 262 W/m² | - |
| 1777575944 | 16.67° C | 53% | 1016 hPa | 0 mm | - | 210 W/m² | - |
| 1777573512 | 16.67° C | 54% | 1016.3 hPa | 0 mm | - | 94 W/m² | - |
| 1777573209 | 16.67° C | 53% | 1016.5 hPa | 0 mm | - | 119 W/m² | - |
* Rain latest hour (hover to see other rain measurements)
** Current wind speed in m/s (hover to see current wind gust speed)